createdAt,value
2023-02-22T00:02:13.275Z,66.39
2023-02-22T00:04:59.209Z,61.81
2023-02-22T00:07:52.498Z,59.58
2023-02-22T00:10:39.708Z,57.84
2023-02-22T00:13:32.169Z,57.65
2023-02-22T00:16:27.875Z,58.34
2023-02-22T00:19:20.648Z,59.32
2023-02-22T00:22:14.433Z,59.99
2023-02-22T00:25:07.572Z,60.59
2023-02-22T00:28:02.277Z,61.16
2023-02-22T00:30:55.557Z,63.68
2023-02-22T00:33:44.005Z,67.39
2023-02-22T00:36:36.850Z,64.03
2023-02-22T00:39:30.380Z,61.90
2023-02-22T00:42:23.205Z,57.71
2023-02-22T00:45:20.546Z,55.45
2023-02-22T00:48:05.344Z,55.78
2023-02-22T00:50:59.499Z,56.78
2023-02-22T00:53:52.300Z,57.61
2023-02-22T00:56:45.075Z,58.83
2023-02-22T00:59:38.159Z,59.83
2023-02-22T01:02:31.000Z,60.51
2023-02-22T01:05:25.926Z,61.34
2023-02-22T01:08:20.145Z,64.84
2023-02-22T01:11:12.908Z,67.48
2023-02-22T01:14:09.762Z,64.11
2023-02-22T01:17:02.592Z,61.81
2023-02-22T01:19:56.089Z,57.90
2023-02-22T01:22:50.907Z,55.55
2023-02-22T01:25:43.593Z,55.97
2023-02-22T01:28:36.876Z,57.18
2023-02-22T01:31:29.702Z,58.25
2023-02-22T01:34:23.124Z,59.07
2023-02-22T01:37:15.917Z,60.46
2023-02-22T01:40:11.580Z,61.11
2023-02-22T01:43:06.567Z,64.06
2023-02-22T01:46:05.279Z,67.36
2023-02-22T01:49:02.042Z,64.24
2023-02-22T01:51:57.999Z,61.69
2023-02-22T01:54:53.685Z,57.61
2023-02-22T01:57:47.552Z,55.59
2023-02-22T02:00:41.187Z,56.21
2023-02-22T02:03:38.793Z,57.15
2023-02-22T02:06:24.186Z,57.81
2023-02-22T02:09:24.553Z,58.74
2023-02-22T02:12:18.561Z,59.96
2023-02-22T02:15:29.406Z,60.97
2023-02-22T02:18:22.344Z,63.80
2023-02-22T02:21:43.991Z,65.89
2023-02-22T02:25:08.938Z,63.86
2023-02-22T02:28:34.734Z,61.66
2023-02-22T02:32:18.247Z,59.25
2023-02-22T02:35:00.332Z,56.20
2023-02-22T02:38:04.260Z,56.65
2023-02-22T02:41:04.959Z,57.02
2023-02-22T02:44:00.088Z,58.22
2023-02-22T02:46:57.753Z,59.36
2023-02-22T02:49:57.350Z,60.31
2023-02-22T02:52:45.919Z,61.20
2023-02-22T02:55:40.731Z,62.79
2023-02-22T02:58:33.897Z,65.25
2023-02-22T03:01:46.654Z,64.80
2023-02-22T03:05:08.645Z,63.50
2023-02-22T03:08:11.105Z,65.37
2023-02-22T03:11:16.247Z,62.57
2023-02-22T03:14:17.866Z,60.48
2023-02-22T03:17:37.073Z,56.43
2023-02-22T03:20:31.995Z,54.89
2023-02-22T03:23:32.509Z,55.06
2023-02-22T03:26:28.973Z,56.81
2023-02-22T03:29:26.357Z,57.86
2023-02-22T03:32:23.025Z,58.62
2023-02-22T03:35:30.689Z,59.52
2023-02-22T03:38:27.562Z,60.64
2023-02-22T03:41:25.315Z,62.34
2023-02-22T03:44:23.267Z,65.56
2023-02-22T03:47:19.380Z,65.85
2023-02-22T03:50:18.161Z,64.15
2023-02-22T03:53:11.100Z,64.07
2023-02-22T03:56:08.679Z,62.75
2023-02-22T03:59:01.692Z,60.78
2023-02-22T04:01:47.346Z,57.42
2023-02-22T04:04:40.148Z,55.21
2023-02-22T04:07:33.071Z,55.65
2023-02-22T04:10:24.904Z,56.64
2023-02-22T04:13:19.178Z,58.33
2023-02-22T04:16:07.526Z,59.47
2023-02-22T04:19:01.915Z,60.19
2023-02-22T04:21:54.727Z,63.36
2023-02-22T04:24:50.409Z,65.85
2023-02-22T04:27:36.400Z,64.69
2023-02-22T04:30:22.759Z,62.80
2023-02-22T04:33:16.257Z,61.47
2023-02-22T04:36:10.861Z,60.54
2023-02-22T04:39:03.997Z,57.57
2023-02-22T04:41:56.763Z,55.82
2023-02-22T04:44:50.187Z,56.39
2023-02-22T04:47:42.950Z,57.16
2023-02-22T04:50:35.930Z,58.33
2023-02-22T04:53:27.698Z,59.93
2023-02-22T04:56:21.972Z,63.24
2023-02-22T04:59:15.503Z,66.47
2023-02-22T05:02:08.310Z,65.67
2023-02-22T05:05:01.135Z,63.94
2023-02-22T05:07:54.041Z,61.63
2023-02-22T05:10:46.820Z,57.99
2023-02-22T05:13:39.813Z,55.61
2023-02-22T05:16:32.698Z,56.15
2023-02-22T05:19:25.839Z,57.13
2023-02-22T05:22:18.971Z,58.65
2023-02-22T05:25:12.371Z,59.69
2023-02-22T05:28:09.188Z,61.03
2023-02-22T05:31:01.961Z,64.50
2023-02-22T05:33:56.049Z,68.61
2023-02-22T05:36:49.300Z,66.19
2023-02-22T05:39:31.607Z,63.50
2023-02-22T05:42:15.640Z,61.84
2023-02-22T05:45:10.341Z,58.14
2023-02-22T05:48:03.802Z,55.70
2023-02-22T05:50:56.738Z,55.71
2023-02-22T05:53:52.184Z,56.39
2023-02-22T05:56:45.011Z,57.58
2023-02-22T05:59:38.253Z,58.23
2023-02-22T06:02:31.300Z,59.36
2023-02-22T06:05:24.801Z,60.39
2023-02-22T06:08:18.285Z,63.05
2023-02-22T06:11:11.674Z,65.86
2023-02-22T06:13:58.107Z,65.24
2023-02-22T06:16:55.471Z,63.94
2023-02-22T06:19:31.312Z,62.63
2023-02-22T06:22:24.505Z,60.64
2023-02-22T06:25:19.434Z,57.84
2023-02-22T06:28:12.577Z,56.83
2023-02-22T06:31:05.947Z,57.29
2023-02-22T06:33:59.154Z,57.72
2023-02-22T06:36:40.576Z,58.41
2023-02-22T06:39:33.714Z,59.12
2023-02-22T06:42:28.155Z,59.33
2023-02-22T06:45:14.306Z,61.20
2023-02-22T06:48:09.435Z,62.82
2023-02-22T06:51:02.397Z,64.74
2023-02-22T06:53:47.809Z,65.81
2023-02-22T06:56:40.979Z,63.46
2023-02-22T06:59:16.755Z,61.25
2023-02-22T07:02:04.141Z,58.40
2023-02-22T07:04:57.524Z,56.22
2023-02-22T07:07:43.547Z,55.90
2023-02-22T07:10:38.249Z,57.19
2023-02-22T07:13:31.723Z,58.67
2023-02-22T07:16:24.903Z,59.09
2023-02-22T07:19:18.740Z,59.65
2023-02-22T07:22:11.659Z,59.74
2023-02-22T07:24:57.147Z,59.52
2023-02-22T07:27:50.069Z,59.86
2023-02-22T07:30:43.810Z,60.31
2023-02-22T07:33:36.784Z,60.59
2023-02-22T07:36:29.874Z,60.47
2023-02-22T07:39:22.942Z,60.60
2023-02-22T07:42:15.882Z,59.78
2023-02-22T07:45:01.268Z,59.22
2023-02-22T07:47:54.955Z,58.80
2023-02-22T07:50:32.337Z,57.61
2023-02-22T07:53:30.280Z,58.38
2023-02-22T07:56:11.405Z,57.77
2023-02-22T07:58:57.789Z,57.90
2023-02-22T08:01:52.431Z,57.16
2023-02-22T08:04:39.897Z,56.98
2023-02-22T08:07:32.828Z,57.89
2023-02-22T08:10:28.190Z,57.32
2023-02-22T08:13:22.307Z,57.11
2023-02-22T08:16:15.701Z,58.00
2023-02-22T08:18:59.886Z,57.30
2023-02-22T08:21:52.959Z,57.06
2023-02-22T08:24:46.250Z,57.15
2023-02-22T08:27:39.406Z,57.31
2023-02-22T08:30:33.638Z,57.84
2023-02-22T08:33:15.311Z,57.72
2023-02-22T08:36:01.809Z,57.69
2023-02-22T08:38:45.996Z,57.91
2023-02-22T08:41:40.923Z,57.83
2023-02-22T08:44:27.694Z,57.36
2023-02-22T08:47:14.645Z,57.14
2023-02-22T08:49:52.440Z,57.39
2023-02-22T08:52:35.500Z,57.28
2023-02-22T08:55:30.656Z,56.70
2023-02-22T08:58:18.131Z,56.43
2023-02-22T09:01:10.954Z,56.42
2023-02-22T09:04:04.092Z,57.01
2023-02-22T09:06:57.336Z,57.27
2023-02-22T09:09:50.386Z,57.70
2023-02-22T09:12:43.200Z,57.50
2023-02-22T09:15:37.567Z,57.71
2023-02-22T09:18:21.275Z,57.53
2023-02-22T09:21:08.499Z,57.05
2023-02-22T09:23:54.791Z,56.99
2023-02-22T09:26:54.680Z,57.56
2023-02-22T09:29:48.885Z,57.53
2023-02-22T09:32:43.324Z,57.54
2023-02-22T09:35:36.859Z,57.42
2023-02-22T09:38:32.909Z,57.74
2023-02-22T09:41:16.952Z,58.41
2023-02-22T09:44:20.388Z,58.74
2023-02-22T09:47:19.583Z,59.61
2023-02-22T09:50:15.733Z,59.60
2023-02-22T09:53:22.089Z,59.78
2023-02-22T09:56:19.261Z,59.47
2023-02-22T09:59:23.820Z,59.25
2023-02-22T10:02:24.918Z,59.34
2023-02-22T10:05:22.663Z,59.21
2023-02-22T10:08:15.125Z,59.03
2023-02-22T10:11:20.617Z,59.25
2023-02-22T10:14:44.297Z,59.65
2023-02-22T10:17:42.146Z,59.75
2023-02-22T10:20:41.111Z,59.74
2023-02-22T10:23:41.019Z,59.26
2023-02-22T10:26:37.934Z,59.02
2023-02-22T10:29:40.016Z,59.02
2023-02-22T10:32:38.794Z,58.92
2023-02-22T10:35:29.045Z,58.51
2023-02-22T10:38:24.742Z,58.27
2023-02-22T10:41:29.292Z,56.82
2023-02-22T10:44:22.216Z,56.57
2023-02-22T10:47:20.010Z,56.67
2023-02-22T10:50:16.820Z,56.22
2023-02-22T10:53:10.364Z,55.31
2023-02-22T10:56:26.078Z,55.21
2023-02-22T10:59:32.939Z,54.97
2023-02-22T11:02:30.465Z,54.23
2023-02-22T11:05:36.986Z,54.41
2023-02-22T11:08:33.188Z,54.09
2023-02-22T11:11:29.524Z,53.87
2023-02-22T11:14:32.034Z,53.48
2023-02-22T11:17:32.739Z,53.75
2023-02-22T11:20:27.636Z,52.80
2023-02-22T11:23:24.657Z,53.09
2023-02-22T11:26:21.404Z,53.12
2023-02-22T11:29:33.926Z,52.98
2023-02-22T11:32:27.308Z,53.25
2023-02-22T11:35:38.690Z,53.17
2023-02-22T11:38:25.792Z,53.22
2023-02-22T11:41:23.331Z,53.25
2023-02-22T11:44:24.257Z,53.19
2023-02-22T11:47:17.407Z,52.68
2023-02-22T11:50:20.042Z,52.49
2023-02-22T11:53:44.895Z,52.61
2023-02-22T11:56:38.386Z,52.17
2023-02-22T11:59:38.099Z,51.85
2023-02-22T12:02:57.405Z,51.75
2023-02-22T12:06:07.119Z,52.29
2023-02-22T12:09:09.978Z,51.54
2023-02-22T12:12:15.878Z,51.33
2023-02-22T12:15:17.290Z,51.41
2023-02-22T12:18:22.059Z,50.82
2023-02-22T12:21:19.949Z,50.53
2023-02-22T12:24:18.722Z,50.75
2023-02-22T12:27:17.198Z,50.05
2023-02-22T12:30:19.317Z,49.28
2023-02-22T12:33:19.742Z,49.24
2023-02-22T12:36:19.039Z,48.79
2023-02-22T12:39:52.109Z,48.10
2023-02-22T12:43:02.079Z,48.53
2023-02-22T12:46:01.724Z,47.64
2023-02-22T12:49:00.866Z,48.01
2023-02-22T12:51:51.281Z,48.54
2023-02-22T12:54:51.723Z,48.66
2023-02-22T12:57:50.352Z,48.16
2023-02-22T13:00:58.787Z,48.08
2023-02-22T13:03:52.093Z,47.79
2023-02-22T13:07:09.002Z,47.68
2023-02-22T13:10:12.367Z,47.94
2023-02-22T13:13:29.831Z,48.33
2023-02-22T13:16:42.564Z,48.47
2023-02-22T13:19:44.185Z,48.52
2023-02-22T13:22:36.628Z,48.48
2023-02-22T13:25:31.483Z,48.07
2023-02-22T13:28:31.448Z,48.65
2023-02-22T13:31:41.187Z,47.93
2023-02-22T13:34:53.529Z,47.91
2023-02-22T13:38:07.465Z,48.54
2023-02-22T13:41:39.221Z,48.42
2023-02-22T13:44:57.360Z,48.85
2023-02-22T13:48:18.242Z,49.18
2023-02-22T13:51:24.440Z,49.47
2023-02-22T13:54:23.946Z,49.21
2023-02-22T13:57:23.710Z,49.44
2023-02-22T14:00:26.036Z,49.75
2023-02-22T14:03:42.543Z,49.14
2023-02-22T14:06:43.152Z,49.27
2023-02-22T14:09:50.883Z,48.78
2023-02-22T14:12:53.267Z,49.03
2023-02-22T14:16:22.853Z,50.00
2023-02-22T14:19:23.816Z,50.15
2023-02-22T14:22:26.911Z,50.16
2023-02-22T14:25:41.568Z,50.46
2023-02-22T14:28:43.108Z,50.48
2023-02-22T14:31:57.954Z,50.63
2023-02-22T14:34:58.844Z,50.54
2023-02-22T14:37:59.940Z,50.51
2023-02-22T14:40:48.433Z,50.28
2023-02-22T14:43:42.200Z,49.91
2023-02-22T14:46:40.751Z,50.24
2023-02-22T14:49:38.172Z,49.99
2023-02-22T14:52:33.891Z,49.52
2023-02-22T14:55:31.781Z,49.24
2023-02-22T14:58:21.768Z,49.55
2023-02-22T15:01:33.972Z,49.80
2023-02-22T15:04:31.134Z,49.87
2023-02-22T15:07:28.508Z,49.81
2023-02-22T15:10:25.244Z,50.17
2023-02-22T15:13:23.992Z,50.26
2023-02-22T15:16:17.395Z,50.38
2023-02-22T15:19:09.867Z,50.36
2023-02-22T15:22:09.275Z,50.36
2023-02-22T15:25:06.488Z,50.67
2023-02-22T15:28:04.545Z,50.55
2023-02-22T15:31:16.382Z,50.99
2023-02-22T15:34:24.681Z,50.98
2023-02-22T15:37:25.647Z,51.49
2023-02-22T15:40:21.006Z,51.65
2023-02-22T15:43:24.371Z,51.84
2023-02-22T15:46:17.370Z,52.13
2023-02-22T15:49:23.402Z,52.40
2023-02-22T15:52:24.089Z,52.72
2023-02-22T15:55:06.616Z,52.92
2023-02-22T15:58:02.880Z,53.05
2023-02-22T16:01:04.775Z,53.31
2023-02-22T16:03:53.330Z,53.64
2023-02-22T16:06:47.437Z,54.08
2023-02-22T16:09:40.326Z,54.39
2023-02-22T16:12:35.732Z,54.87
2023-02-22T16:15:49.568Z,55.81
2023-02-22T16:18:42.687Z,56.20
2023-02-22T16:22:00.084Z,57.20
2023-02-22T16:24:52.215Z,57.72
2023-02-22T16:27:48.561Z,58.49
2023-02-22T16:30:34.768Z,59.53
2023-02-22T16:33:33.837Z,59.72
2023-02-22T16:36:40.565Z,59.36
2023-02-22T16:39:36.275Z,58.85
2023-02-22T16:42:29.246Z,59.47
2023-02-22T16:45:23.194Z,58.67
2023-02-22T16:48:18.916Z,58.53
2023-02-22T16:51:18.995Z,58.76
2023-02-22T16:54:15.648Z,59.02
2023-02-22T16:57:12.918Z,59.41
2023-02-22T17:00:11.339Z,59.66
2023-02-22T17:03:07.814Z,59.97
2023-02-22T17:06:00.786Z,60.52
2023-02-22T17:08:53.745Z,61.13
2023-02-22T17:11:48.382Z,61.65
2023-02-22T17:14:46.127Z,65.93
2023-02-22T17:17:40.592Z,67.80
2023-02-22T17:20:33.675Z,66.53
2023-02-22T17:23:28.158Z,61.55
2023-02-22T17:26:21.081Z,56.82
2023-02-22T17:29:15.361Z,54.44
2023-02-22T17:32:08.874Z,54.47
2023-02-22T17:34:53.544Z,55.72
2023-02-22T17:37:47.136Z,56.75
2023-02-22T17:40:33.089Z,57.87
2023-02-22T17:43:27.908Z,58.96
2023-02-22T17:46:21.248Z,59.90
2023-02-22T17:49:13.986Z,61.13
2023-02-22T17:52:06.440Z,62.79
2023-02-22T17:54:59.389Z,64.38
2023-02-22T17:57:59.105Z,63.75
2023-02-22T18:00:44.491Z,60.95
2023-02-22T18:03:39.596Z,57.36
2023-02-22T18:06:33.883Z,55.73
2023-02-22T18:09:27.316Z,56.18
2023-02-22T18:12:20.290Z,57.60
2023-02-22T18:15:17.490Z,59.01
2023-02-22T18:18:10.550Z,60.57
2023-02-22T18:21:04.254Z,61.37
2023-02-22T18:23:58.124Z,63.46
2023-02-22T18:26:51.200Z,64.78
2023-02-22T18:29:35.349Z,63.24
2023-02-22T18:32:47.246Z,60.50
2023-02-22T18:35:40.331Z,56.47
2023-02-22T18:38:26.593Z,55.50
2023-02-22T18:41:25.394Z,56.33
2023-02-22T18:44:18.551Z,57.25
2023-02-22T18:47:11.566Z,58.65
2023-02-22T18:50:04.505Z,59.57
2023-02-22T18:52:57.308Z,60.41
2023-02-22T18:55:43.389Z,61.20
2023-02-22T18:58:28.710Z,63.71
2023-02-22T19:01:22.504Z,65.34
2023-02-22T19:04:12.061Z,63.08
2023-02-22T19:07:05.228Z,60.99
2023-02-22T19:10:00.069Z,57.41
2023-02-22T19:12:52.966Z,55.37
2023-02-22T19:15:27.932Z,56.21
2023-02-22T19:18:13.050Z,57.51
2023-02-22T19:21:02.958Z,58.63
2023-02-22T19:23:57.018Z,59.79
2023-02-22T19:26:50.286Z,61.04
2023-02-22T19:29:23.881Z,63.80
2023-02-22T19:32:08.262Z,67.07
2023-02-22T19:35:06.860Z,66.91
2023-02-22T19:38:00.930Z,63.36
2023-02-22T19:40:44.659Z,58.55
2023-02-22T19:43:37.946Z,55.05
2023-02-22T19:46:31.404Z,55.07
2023-02-22T19:52:22.260Z,56.72
2023-02-22T19:55:16.027Z,57.91
2023-02-22T19:58:09.273Z,59.01
2023-02-22T20:01:03.201Z,60.18
2023-02-22T20:04:00.044Z,60.61
2023-02-22T20:06:55.252Z,63.90
2023-02-22T20:09:42.863Z,67.35
2023-02-22T20:12:36.118Z,66.25
2023-02-22T20:15:29.533Z,62.94
2023-02-22T20:18:23.097Z,57.59
2023-02-22T20:21:19.999Z,54.63
2023-02-22T20:24:16.375Z,54.64
2023-02-22T20:27:01.650Z,55.44
2023-02-22T20:29:48.072Z,56.20
2023-02-22T20:32:34.421Z,57.88
2023-02-22T20:35:28.267Z,59.09
2023-02-22T20:38:21.422Z,60.04
2023-02-22T20:41:22.600Z,63.69
2023-02-22T20:44:17.639Z,66.19
2023-02-22T20:47:10.941Z,62.97
2023-02-22T20:50:03.784Z,60.45
2023-02-22T20:52:58.939Z,55.96
2023-02-22T20:55:55.873Z,53.43
2023-02-22T20:58:49.371Z,53.96
2023-02-22T21:01:42.586Z,55.00
2023-02-22T21:04:36.505Z,56.33
2023-02-22T21:07:29.386Z,57.20
2023-02-22T21:10:23.099Z,57.88
2023-02-22T21:13:16.435Z,58.83
2023-02-22T21:16:11.501Z,59.22
2023-02-22T21:19:06.748Z,60.20
2023-02-22T21:22:06.788Z,61.05
2023-02-22T21:25:00.510Z,64.45
2023-02-22T21:27:53.804Z,68.07
2023-02-22T21:30:47.951Z,65.55
2023-02-22T21:33:35.438Z,63.96
2023-02-22T21:36:29.658Z,62.25
2023-02-22T21:39:22.738Z,60.47
2023-02-22T21:42:15.641Z,57.61
2023-02-22T21:45:10.119Z,55.65
2023-02-22T21:48:03.136Z,56.07
2023-02-22T21:50:56.354Z,56.73
2023-02-22T21:53:45.815Z,57.69
2023-02-22T21:56:35.824Z,58.48
2023-02-22T21:59:28.672Z,59.06
2023-02-22T22:02:22.317Z,60.14
2023-02-22T22:04:57.638Z,61.00
2023-02-22T22:07:51.397Z,64.89
2023-02-22T22:10:44.149Z,66.79
2023-02-22T22:13:37.842Z,64.96
2023-02-22T22:16:30.623Z,62.81
2023-02-22T22:19:24.052Z,61.74
2023-02-22T22:22:16.862Z,60.18
2023-02-22T22:25:12.079Z,57.40
2023-02-22T22:28:04.630Z,55.72
2023-02-22T22:30:49.156Z,56.15
2023-02-22T22:33:43.926Z,56.98
2023-02-22T22:36:29.657Z,58.12
2023-02-22T22:39:23.510Z,59.13
2023-02-22T22:42:17.418Z,59.81
2023-02-22T22:45:17.283Z,61.08
2023-02-22T22:48:14.869Z,64.48
2023-02-22T22:51:10.742Z,67.57
2023-02-22T22:54:03.839Z,67.74
2023-02-22T22:56:56.739Z,65.78
2023-02-22T22:59:42.150Z,63.14
2023-02-22T23:02:38.143Z,61.13
2023-02-22T23:05:31.763Z,60.11
2023-02-22T23:08:29.374Z,58.58
2023-02-22T23:11:22.292Z,56.93
2023-02-22T23:14:15.133Z,57.57
2023-02-22T23:17:29.196Z,58.29
2023-02-22T23:20:14.640Z,59.33
2023-02-22T23:23:13.393Z,60.79
2023-02-22T23:26:18.013Z,64.36
2023-02-22T23:29:03.674Z,67.55
2023-02-22T23:31:56.494Z,67.28
2023-02-22T23:34:42.203Z,66.05
2023-02-22T23:37:35.628Z,64.16
2023-02-22T23:40:29.245Z,62.96
2023-02-22T23:43:33.723Z,62.02
2023-02-22T23:46:27.232Z,62.08
2023-02-22T23:49:20.767Z,61.96
2023-02-22T23:52:16.079Z,61.74
2023-02-22T23:55:10.233Z,58.09
2023-02-22T23:58:03.576Z,56.61
